Time;durP1;ratioP1;P1;durP2;ratioP2;P2;SDS_P1;SDS_P2;PMS_P1;PMS_P2;Temp;Humidity;BMP_temperature;BMP_pressure;BME280_temperature;BME280_humidity;BME280_pressure;Samples;Min_cycle;Max_cycle;Signal;HPM_P1;HPM_P2
2023/03/09 00:00:11;;;;;;;18.70;12.80;;;;;;;;;;4930895;29;20743;-78
2023/03/09 00:02:38;;;;;;;22.40;14.55;;;;;;;;;;4927715;28;20466;-80
2023/03/09 00:05:04;;;;;;;18.33;13.60;;;;;;;;;;4910205;29;20524;-79
2023/03/09 00:07:30;;;;;;;23.27;13.48;;;;;;;;;;4927524;29;20250;-80
2023/03/09 00:09:57;;;;;;;22.45;13.43;;;;;;;;;;4935586;29;20187;-79
2023/03/09 00:12:25;;;;;;;20.95;12.30;;;;;;;;;;4925333;29;20703;-79
2023/03/09 00:14:52;;;;;;;16.77;11.90;;;;;;;;;;4942124;28;20254;-79
2023/03/09 00:17:18;;;;;;;21.05;14.40;;;;;;;;;;4934591;29;20196;-79
2023/03/09 00:19:44;;;;;;;18.63;12.05;;;;;;;;;;4935548;29;20279;-80
2023/03/09 00:22:10;;;;;;;21.87;12.90;;;;;;;;;;4933922;28;20530;-80
2023/03/09 00:24:45;;;;;;;17.00;12.27;;;;;;;;;;4930228;28;20502;-79
2023/03/09 00:27:11;;;;;;;12.87;10.70;;;;;;;;;;4932179;29;20510;-80
2023/03/09 00:29:38;;;;;;;17.63;12.10;;;;;;;;;;4936241;29;20500;-80
2023/03/09 00:32:04;;;;;;;18.08;12.77;;;;;;;;;;4921751;29;20183;-79
2023/03/09 00:34:30;;;;;;;20.95;13.10;;;;;;;;;;4936278;29;20217;-80
2023/03/09 00:36:56;;;;;;;13.77;10.20;;;;;;;;;;4936481;29;20194;-80
2023/03/09 00:39:22;;;;;;;18.35;10.75;;;;;;;;;;4939778;28;20565;-79
2023/03/09 00:41:48;;;;;;;16.45;12.45;;;;;;;;;;4935641;29;20206;-79
2023/03/09 00:44:14;;;;;;;17.00;11.87;;;;;;;;;;4940662;29;20179;-79
2023/03/09 00:46:40;;;;;;;14.93;11.55;;;;;;;;;;4919200;28;20436;-80
2023/03/09 00:49:07;;;;;;;18.65;11.27;;;;;;;;;;4940188;28;20198;-80
2023/03/09 00:51:33;;;;;;;15.40;11.25;;;;;;;;;;4938216;29;20260;-80
2023/03/09 00:54:00;;;;;;;19.63;13.15;;;;;;;;;;4939379;29;20300;-81
2023/03/09 00:56:27;;;;;;;17.25;12.63;;;;;;;;;;4938806;29;20198;-80
2023/03/09 00:58:53;;;;;;;17.20;10.82;;;;;;;;;;4938680;29;20202;-80
2023/03/09 01:01:20;;;;;;;15.50;10.95;;;;;;;;;;4941497;29;20693;-78
2023/03/09 01:03:46;;;;;;;14.88;11.68;;;;;;;;;;4938027;29;20273;-78
2023/03/09 01:06:12;;;;;;;12.38;9.52;;;;;;;;;;4938783;29;20221;-78
2023/03/09 01:08:39;;;;;;;14.45;11.52;;;;;;;;;;4934989;29;22212;-78
2023/03/09 01:11:06;;;;;;;15.85;10.70;;;;;;;;;;4939337;29;20195;-79
2023/03/09 01:13:32;;;;;;;20.48;14.27;;;;;;;;;;4933889;28;20333;-79
2023/03/09 01:15:58;;;;;;;18.98;13.38;;;;;;;;;;4939388;28;20716;-79
2023/03/09 01:18:24;;;;;;;21.48;14.13;;;;;;;;;;4937001;28;20222;-79
2023/03/09 01:20:50;;;;;;;20.63;13.55;;;;;;;;;;4940973;29;21051;-78
2023/03/09 01:23:16;;;;;;;20.58;14.52;;;;;;;;;;4931988;29;20198;-79
2023/03/09 01:25:42;;;;;;;24.10;15.53;;;;;;;;;;4939327;28;20190;-80
2023/03/09 01:28:08;;;;;;;24.07;16.37;;;;;;;;;;4941329;29;20508;-79
2023/03/09 01:30:34;;;;;;;29.40;17.17;;;;;;;;;;4942940;29;21008;-80
2023/03/09 01:33:00;;;;;;;30.13;21.60;;;;;;;;;;4938674;28;20732;-78
2023/03/09 01:35:26;;;;;;;26.30;16.60;;;;;;;;;;4943734;29;20194;-79
2023/03/09 01:37:52;;;;;;;25.77;16.23;;;;;;;;;;4937625;29;20519;-80
2023/03/09 01:40:23;;;;;;;27.98;17.73;;;;;;;;;;4944363;29;20890;-80
2023/03/09 01:42:59;;;;;;;30.42;17.27;;;;;;;;;;4939430;29;20195;-81
2023/03/09 01:45:25;;;;;;;31.98;18.48;;;;;;;;;;4926472;29;20182;-79
2023/03/09 01:47:52;;;;;;;26.93;17.43;;;;;;;;;;4940227;29;20208;-79
2023/03/09 01:50:21;;;;;;;28.67;18.42;;;;;;;;;;4941850;29;21006;-79
2023/03/09 01:52:49;;;;;;;33.03;20.30;;;;;;;;;;4922522;29;20232;-79
2023/03/09 01:55:17;;;;;;;35.88;20.50;;;;;;;;;;4941206;29;20430;-79
2023/03/09 01:57:54;;;;;;;33.60;18.70;;;;;;;;;;4941146;29;20210;-78
2023/03/09 02:00:21;;;;;;;32.25;18.27;;;;;;;;;;4943211;29;20673;-79
2023/03/09 02:02:53;;;;;;;24.15;16.70;;;;;;;;;;4941708;28;20190;-80
2023/03/09 02:05:24;;;;;;;30.63;19.98;;;;;;;;;;4942823;29;20207;-80
2023/03/09 02:07:51;;;;;;;30.23;18.95;;;;;;;;;;4940975;29;21368;-78
2023/03/09 02:10:30;;;;;;;26.35;16.73;;;;;;;;;;4942304;28;20285;-80
2023/03/09 02:12:58;;;;;;;30.80;17.98;;;;;;;;;;4942121;29;20231;-80
2023/03/09 02:15:24;;;;;;;30.40;18.67;;;;;;;;;;4943542;29;20247;-79
2023/03/09 02:17:51;;;;;;;28.73;17.07;;;;;;;;;;4942422;29;20228;-79
2023/03/09 02:20:35;;;;;;;31.48;17.45;;;;;;;;;;4943898;29;20528;-79
2023/03/09 02:23:03;;;;;;;25.90;16.73;;;;;;;;;;4918892;29;20214;-78
2023/03/09 02:25:29;;;;;;;34.47;20.88;;;;;;;;;;4948450;29;20191;-77
2023/03/09 02:27:55;;;;;;;29.58;18.77;;;;;;;;;;4944599;28;20222;-77
2023/03/09 02:30:23;;;;;;;30.35;18.58;;;;;;;;;;4947985;29;20186;-78
2023/03/09 02:32:49;;;;;;;35.30;16.67;;;;;;;;;;4944147;29;20380;-78
2023/03/09 02:35:15;;;;;;;26.30;16.50;;;;;;;;;;4943153;29;20674;-78
2023/03/09 02:37:43;;;;;;;31.17;18.98;;;;;;;;;;4942449;28;20536;-78
2023/03/09 02:40:14;;;;;;;34.75;18.98;;;;;;;;;;4942844;29;20190;-78
2023/03/09 02:42:40;;;;;;;40.47;21.90;;;;;;;;;;4924085;29;20199;-78
2023/03/09 02:45:07;;;;;;;42.13;22.63;;;;;;;;;;4942941;29;20504;-78
2023/03/09 02:47:33;;;;;;;40.22;21.65;;;;;;;;;;4940662;29;20700;-78
2023/03/09 02:49:59;;;;;;;35.07;19.57;;;;;;;;;;4941870;29;20225;-78
2023/03/09 02:52:25;;;;;;;42.00;21.70;;;;;;;;;;4939349;29;20992;-78
2023/03/09 02:54:51;;;;;;;44.53;24.10;;;;;;;;;;4940577;29;20476;-78
2023/03/09 02:57:17;;;;;;;44.07;21.83;;;;;;;;;;4941144;29;20903;-78
2023/03/09 02:59:43;;;;;;;45.85;21.17;;;;;;;;;;4941282;29;20487;-79
2023/03/09 03:02:09;;;;;;;46.70;23.17;;;;;;;;;;4937391;29;20286;-79
2023/03/09 03:04:35;;;;;;;49.25;24.77;;;;;;;;;;4937677;28;20429;-79
2023/03/09 03:07:01;;;;;;;46.80;23.40;;;;;;;;;;4933092;29;20241;-78
2023/03/09 03:09:27;;;;;;;55.60;24.88;;;;;;;;;;4940113;29;20195;-80
2023/03/09 03:11:53;;;;;;;49.33;23.20;;;;;;;;;;4940088;29;20888;-79
2023/03/09 03:14:19;;;;;;;51.93;24.20;;;;;;;;;;4939278;29;20262;-77
2023/03/09 03:16:48;;;;;;;48.53;24.70;;;;;;;;;;4939770;29;20454;-79
2023/03/09 03:19:14;;;;;;;46.08;20.40;;;;;;;;;;4940457;29;20449;-78
2023/03/09 03:21:40;;;;;;;59.50;24.13;;;;;;;;;;4939605;29;20250;-78
2023/03/09 03:24:06;;;;;;;47.93;23.07;;;;;;;;;;4939722;29;20458;-78
2023/03/09 03:26:32;;;;;;;48.95;23.67;;;;;;;;;;4941986;28;20479;-77
2023/03/09 03:28:58;;;;;;;41.53;21.40;;;;;;;;;;4938368;28;20205;-79
2023/03/09 03:31:24;;;;;;;44.93;24.93;;;;;;;;;;4942583;29;20430;-79
2023/03/09 03:33:50;;;;;;;43.00;21.30;;;;;;;;;;4938031;29;20989;-79
2023/03/09 03:36:16;;;;;;;49.17;22.10;;;;;;;;;;4941943;29;20330;-80
2023/03/09 03:38:42;;;;;;;51.50;22.80;;;;;;;;;;4936530;29;20404;-79
2023/03/09 03:41:08;;;;;;;45.87;23.00;;;;;;;;;;4942461;29;20183;-80
2023/03/09 03:43:34;;;;;;;43.10;22.50;;;;;;;;;;4937394;29;20450;-78
2023/03/09 03:46:00;;;;;;;43.78;23.85;;;;;;;;;;4941362;29;20434;-80
2023/03/09 03:48:26;;;;;;;44.95;23.00;;;;;;;;;;4938732;29;20276;-80
2023/03/09 03:50:52;;;;;;;41.33;21.40;;;;;;;;;;4940597;28;20983;-79
2023/03/09 03:53:18;;;;;;;45.70;21.53;;;;;;;;;;4938331;29;20485;-81
2023/03/09 03:55:44;;;;;;;39.13;20.50;;;;;;;;;;4940403;29;20438;-80
2023/03/09 03:58:10;;;;;;;39.90;21.95;;;;;;;;;;4937004;29;20566;-80
2023/03/09 04:00:36;;;;;;;40.17;21.73;;;;;;;;;;4938945;29;20177;-80
2023/03/09 04:03:02;;;;;;;39.43;20.57;;;;;;;;;;4922685;29;20458;-79
2023/03/09 04:05:28;;;;;;;50.70;24.38;;;;;;;;;;4939579;29;21052;-79
2023/03/09 04:07:54;;;;;;;48.87;20.40;;;;;;;;;;4939354;29;20205;-80
2023/03/09 04:10:23;;;;;;;41.47;20.23;;;;;;;;;;4940383;29;20449;-81
2023/03/09 04:12:49;;;;;;;40.70;20.70;;;;;;;;;;4938748;28;20287;-81
2023/03/09 04:15:15;;;;;;;38.67;20.00;;;;;;;;;;4939858;29;20290;-81
2023/03/09 04:17:41;;;;;;;43.07;20.57;;;;;;;;;;4938115;29;20450;-80
2023/03/09 04:20:07;;;;;;;35.75;17.25;;;;;;;;;;4939988;29;20433;-79
2023/03/09 04:22:33;;;;;;;33.20;18.98;;;;;;;;;;4932989;28;20843;-80
2023/03/09 04:24:59;;;;;;;35.78;20.85;;;;;;;;;;4940071;29;20187;-80
2023/03/09 04:27:25;;;;;;;40.93;20.50;;;;;;;;;;4936062;29;20197;-80
2023/03/09 04:29:51;;;;;;;43.87;23.17;;;;;;;;;;4920556;29;20440;-79
2023/03/09 04:32:17;;;;;;;35.87;20.20;;;;;;;;;;4938599;29;20553;-78
2023/03/09 04:34:43;;;;;;;39.33;21.10;;;;;;;;;;4940467;29;20480;-79
2023/03/09 04:37:11;;;;;;;48.97;20.77;;;;;;;;;;4938544;29;20466;-78
2023/03/09 04:39:37;;;;;;;35.47;19.35;;;;;;;;;;4940663;29;20194;-77
2023/03/09 04:42:03;;;;;;;34.10;19.93;;;;;;;;;;4935326;29;20214;-79
2023/03/09 04:44:29;;;;;;;51.83;21.67;;;;;;;;;;4940698;29;20438;-79
2023/03/09 04:46:55;;;;;;;40.50;20.63;;;;;;;;;;4936425;29;20221;-81
2023/03/09 04:49:21;;;;;;;41.37;19.80;;;;;;;;;;4941903;29;20190;-81
2023/03/09 04:51:47;;;;;;;45.23;21.70;;;;;;;;;;4934924;28;20717;-79
2023/03/09 04:54:13;;;;;;;49.05;22.70;;;;;;;;;;4923005;28;20440;-79
2023/03/09 04:56:39;;;;;;;47.05;21.40;;;;;;;;;;4937958;28;20336;-78
2023/03/09 04:59:05;;;;;;;42.05;22.17;;;;;;;;;;4931183;28;20179;-80
2023/03/09 05:01:31;;;;;;;41.30;21.27;;;;;;;;;;4936213;28;20689;-79
2023/03/09 05:03:57;;;;;;;43.25;22.35;;;;;;;;;;4940387;28;20459;-80
2023/03/09 05:06:23;;;;;;;44.17;23.40;;;;;;;;;;4935334;29;20256;-80
2023/03/09 05:08:49;;;;;;;43.73;21.20;;;;;;;;;;4937042;29;20445;-78
2023/03/09 05:11:15;;;;;;;49.50;20.63;;;;;;;;;;4913516;29;20998;-79
2023/03/09 05:13:41;;;;;;;50.08;23.63;;;;;;;;;;4936289;29;20461;-78
2023/03/09 05:16:07;;;;;;;137.67;69.37;;;;;;;;;;4941333;29;20195;-79
2023/03/09 05:18:34;;;;;;;43.60;23.58;;;;;;;;;;4942178;29;20450;-78
2023/03/09 05:21:04;;;;;;;48.00;24.45;;;;;;;;;;4941378;29;20567;-78
2023/03/09 05:23:30;;;;;;;45.05;22.20;;;;;;;;;;4934645;29;20196;-79
2023/03/09 05:25:57;;;;;;;45.53;23.13;;;;;;;;;;4931617;28;20214;-79
2023/03/09 05:28:24;;;;;;;33.90;17.63;;;;;;;;;;4937571;29;20273;-79
2023/03/09 05:30:50;;;;;;;38.92;21.88;;;;;;;;;;4924975;29;20187;-78
2023/03/09 05:33:16;;;;;;;43.40;22.07;;;;;;;;;;4936042;29;20208;-79
2023/03/09 05:35:42;;;;;;;42.33;20.65;;;;;;;;;;4935798;29;20420;-79
2023/03/09 05:38:08;;;;;;;43.60;22.80;;;;;;;;;;4934240;29;20262;-78
2023/03/09 05:40:35;;;;;;;45.43;22.20;;;;;;;;;;4917259;29;20435;-78
2023/03/09 05:43:01;;;;;;;49.10;22.80;;;;;;;;;;4924570;28;20452;-80
2023/03/09 05:45:27;;;;;;;50.38;24.88;;;;;;;;;;4937257;29;20235;-79
2023/03/09 05:47:53;;;;;;;41.88;20.10;;;;;;;;;;4927720;29;20193;-78
2023/03/09 05:50:19;;;;;;;50.93;23.83;;;;;;;;;;4929995;29;20191;-79
2023/03/09 05:52:45;;;;;;;55.38;25.67;;;;;;;;;;4914008;29;20550;-79
2023/03/09 05:55:11;;;;;;;53.88;24.00;;;;;;;;;;4940661;29;20218;-79
2023/03/09 05:57:38;;;;;;;47.00;22.40;;;;;;;;;;4933020;29;20207;-75
2023/03/09 06:00:06;;;;;;;47.75;23.08;;;;;;;;;;4933860;29;20438;-79
2023/03/09 06:02:32;;;;;;;49.75;23.27;;;;;;;;;;4923568;29;20634;-80
2023/03/09 06:04:59;;;;;;;55.80;24.92;;;;;;;;;;4931705;29;20190;-80
2023/03/09 06:07:25;;;;;;;45.85;20.98;;;;;;;;;;4929457;29;20542;-79
2023/03/09 06:09:51;;;;;;;60.72;26.13;;;;;;;;;;4935766;29;20175;-79
2023/03/09 06:12:17;;;;;;;65.23;23.40;;;;;;;;;;4925602;29;20246;-78
2023/03/09 06:14:43;;;;;;;52.92;22.30;;;;;;;;;;4931559;29;20470;-80
2023/03/09 06:17:09;;;;;;;57.85;26.63;;;;;;;;;;4937928;29;20564;-78
2023/03/09 06:19:35;;;;;;;56.23;24.30;;;;;;;;;;4941288;29;20174;-80
2023/03/09 06:22:01;;;;;;;58.43;27.60;;;;;;;;;;4935658;29;20454;-78
2023/03/09 06:24:27;;;;;;;64.13;25.17;;;;;;;;;;4934680;29;21061;-79
2023/03/09 06:26:56;;;;;;;57.10;24.37;;;;;;;;;;4919105;29;20475;-78
2023/03/09 06:29:22;;;;;;;63.25;27.35;;;;;;;;;;4928100;28;20440;-79
2023/03/09 06:31:48;;;;;;;67.53;24.60;;;;;;;;;;4935073;29;20570;-78
2023/03/09 06:34:14;;;;;;;52.43;23.07;;;;;;;;;;4923975;29;20577;-79
2023/03/09 06:36:40;;;;;;;62.22;25.05;;;;;;;;;;4936263;29;20441;-78
2023/03/09 06:39:06;;;;;;;63.33;24.57;;;;;;;;;;4928211;29;20222;-78
2023/03/09 06:41:32;;;;;;;58.47;24.90;;;;;;;;;;4933382;29;20932;-80
2023/03/09 06:43:58;;;;;;;52.83;23.57;;;;;;;;;;4934502;29;20447;-78
2023/03/09 06:46:25;;;;;;;50.47;22.48;;;;;;;;;;4930890;29;20440;-78
2023/03/09 06:48:51;;;;;;;56.67;25.15;;;;;;;;;;4930226;29;20201;-76
2023/03/09 06:51:17;;;;;;;60.45;24.25;;;;;;;;;;4934899;29;20218;-77
2023/03/09 06:53:43;;;;;;;47.78;20.40;;;;;;;;;;4931527;29;20358;-76
2023/03/09 06:56:10;;;;;;;59.25;23.13;;;;;;;;;;4927153;29;20215;-78
2023/03/09 06:58:36;;;;;;;53.00;22.10;;;;;;;;;;4917596;29;20187;-76
2023/03/09 07:01:06;;;;;;;44.67;21.48;;;;;;;;;;4936496;29;20175;-76
2023/03/09 07:03:32;;;;;;;67.60;29.80;;;;;;;;;;4930089;29;20191;-77
2023/03/09 07:05:58;;;;;;;53.25;23.95;;;;;;;;;;4924912;29;21025;-77
2023/03/09 07:08:24;;;;;;;51.38;25.17;;;;;;;;;;4930118;29;20195;-76
2023/03/09 07:10:51;;;;;;;61.87;25.27;;;;;;;;;;4935266;29;20179;-78
2023/03/09 07:13:17;;;;;;;49.53;22.48;;;;;;;;;;4924368;29;20472;-77
2023/03/09 07:15:43;;;;;;;45.80;23.70;;;;;;;;;;4934112;29;20658;-78
2023/03/09 07:18:09;;;;;;;38.88;19.65;;;;;;;;;;4924072;29;20439;-78
2023/03/09 07:20:37;;;;;;;52.38;23.20;;;;;;;;;;4939320;29;20230;-78
2023/03/09 07:23:03;;;;;;;51.25;21.80;;;;;;;;;;4928004;29;20208;-77
2023/03/09 07:25:33;;;;;;;32.58;16.95;;;;;;;;;;4935433;29;20255;-78
2023/03/09 07:27:59;;;;;;;44.40;20.60;;;;;;;;;;4923032;29;20302;-77
2023/03/09 07:30:26;;;;;;;42.85;20.55;;;;;;;;;;4930091;29;20906;-77
2023/03/09 07:32:52;;;;;;;39.08;18.65;;;;;;;;;;4923101;29;20213;-77
2023/03/09 07:35:18;;;;;;;44.75;20.27;;;;;;;;;;4906895;29;20237;-77
2023/03/09 07:37:44;;;;;;;38.80;18.07;;;;;;;;;;4914522;29;20202;-77
2023/03/09 07:40:11;;;;;;;48.15;20.58;;;;;;;;;;4934005;29;20447;-75
2023/03/09 07:42:37;;;;;;;36.20;18.17;;;;;;;;;;4926760;29;20200;-78
2023/03/09 07:45:03;;;;;;;33.88;17.67;;;;;;;;;;4935251;29;20452;-77
2023/03/09 07:47:31;;;;;;;34.73;15.30;;;;;;;;;;4921378;28;20205;-76
2023/03/09 07:49:57;;;;;;;36.75;18.92;;;;;;;;;;4918146;28;20778;-78
2023/03/09 07:52:30;;;;;;;44.70;20.90;;;;;;;;;;4938361;28;20230;-79
2023/03/09 07:54:56;;;;;;;44.90;21.58;;;;;;;;;;4935070;29;20253;-78
2023/03/09 07:57:23;;;;;;;42.20;19.58;;;;;;;;;;4926317;29;20246;-78
2023/03/09 07:59:52;;;;;;;38.53;18.87;;;;;;;;;;4932995;29;20196;-78
2023/03/09 08:02:18;;;;;;;44.90;18.83;;;;;;;;;;4935049;29;20576;-79
2023/03/09 08:04:44;;;;;;;40.07;18.87;;;;;;;;;;4936897;29;20223;-80
2023/03/09 08:07:10;;;;;;;32.00;18.83;;;;;;;;;;4917581;29;20461;-78
2023/03/09 08:09:37;;;;;;;39.20;19.93;;;;;;;;;;4935113;29;20953;-80
2023/03/09 08:12:03;;;;;;;35.35;19.83;;;;;;;;;;4933393;28;20458;-78
2023/03/09 08:14:29;;;;;;;39.83;20.37;;;;;;;;;;4914844;29;20236;-77
2023/03/09 08:16:55;;;;;;;47.90;22.80;;;;;;;;;;4918176;29;22431;-78
2023/03/09 08:19:21;;;;;;;42.10;20.38;;;;;;;;;;4938920;29;20465;-78
2023/03/09 08:21:50;;;;;;;39.70;19.55;;;;;;;;;;4939112;29;20273;-78
2023/03/09 08:24:17;;;;;;;41.97;21.00;;;;;;;;;;4934874;29;20194;-79
2023/03/09 08:26:43;;;;;;;43.88;20.40;;;;;;;;;;4917944;29;20454;-77
2023/03/09 08:29:09;;;;;;;43.97;21.08;;;;;;;;;;4936960;29;20216;-78
2023/03/09 08:31:36;;;;;;;38.40;20.23;;;;;;;;;;4918482;29;20574;-78
2023/03/09 08:34:02;;;;;;;37.13;18.52;;;;;;;;;;4935662;29;20466;-77
2023/03/09 08:36:28;;;;;;;34.47;17.10;;;;;;;;;;4936743;28;20190;-78
2023/03/09 08:38:54;;;;;;;35.93;18.67;;;;;;;;;;4939151;29;20421;-77
2023/03/09 08:41:21;;;;;;;35.92;17.15;;;;;;;;;;4938903;28;20450;-77
2023/03/09 08:43:47;;;;;;;36.60;17.25;;;;;;;;;;4936108;28;20202;-77
2023/03/09 08:46:13;;;;;;;32.63;17.23;;;;;;;;;;4937529;29;20293;-78
2023/03/09 08:48:59;;;;;;;34.37;17.77;;;;;;;;;;4937125;29;20491;-80
2023/03/09 08:51:27;;;;;;;42.17;20.60;;;;;;;;;;4937061;29;20449;-77
2023/03/09 08:53:53;;;;;;;35.03;18.03;;;;;;;;;;4917418;29;21066;-79
2023/03/09 08:56:19;;;;;;;43.63;20.70;;;;;;;;;;4913950;29;20731;-77
2023/03/09 08:58:47;;;;;;;36.13;16.50;;;;;;;;;;4907586;29;20619;-78
2023/03/09 09:01:13;;;;;;;30.23;18.07;;;;;;;;;;4902133;29;20487;-78
2023/03/09 09:03:39;;;;;;;35.07;16.93;;;;;;;;;;4914770;29;20627;-80
2023/03/09 09:06:06;;;;;;;37.77;18.87;;;;;;;;;;4924904;29;21057;-78
2023/03/09 09:08:32;;;;;;;36.50;18.23;;;;;;;;;;4916587;29;20542;-81
2023/03/09 09:10:58;;;;;;;38.57;20.10;;;;;;;;;;4920465;29;20450;-76
2023/03/09 09:13:24;;;;;;;42.97;20.83;;;;;;;;;;4902959;29;20475;-79
2023/03/09 09:15:54;;;;;;;40.20;20.50;;;;;;;;;;4919894;29;20463;-79
2023/03/09 09:18:20;;;;;;;36.65;19.75;;;;;;;;;;4916863;29;20545;-77
2023/03/09 09:20:47;;;;;;;39.73;19.23;;;;;;;;;;4922283;29;20191;-81
2023/03/09 09:23:13;;;;;;;32.87;16.50;;;;;;;;;;4916165;29;20451;-78
2023/03/09 09:25:42;;;;;;;29.17;16.60;;;;;;;;;;4916064;29;20455;-82
2023/03/09 09:28:08;;;;;;;34.60;18.00;;;;;;;;;;4923919;29;20451;-80
2023/03/09 09:30:36;;;;;;;31.80;16.57;;;;;;;;;;4925511;29;20496;-81
2023/03/09 09:33:04;;;;;;;32.83;17.50;;;;;;;;;;4922920;29;20804;-83
2023/03/09 09:35:30;;;;;;;31.60;15.80;;;;;;;;;;4923326;29;20443;-80
2023/03/09 09:37:57;;;;;;;35.20;17.10;;;;;;;;;;4922517;29;20457;-80
2023/03/09 09:40:23;;;;;;;30.60;15.67;;;;;;;;;;4919639;29;20562;-79
2023/03/09 09:42:50;;;;;;;31.60;16.70;;;;;;;;;;4925660;29;20962;-82
2023/03/09 09:45:37;;;;;;;31.93;16.87;;;;;;;;;;4920563;29;20483;-81
2023/03/09 09:48:05;;;;;;;32.00;16.23;;;;;;;;;;4909483;29;20617;-80
2023/03/09 09:50:43;;;;;;;33.70;16.50;;;;;;;;;;4924469;29;20464;-82
2023/03/09 09:53:32;;;;;;;32.23;16.67;;;;;;;;;;4927406;29;20478;-81
2023/03/09 09:56:00;;;;;;;35.57;17.70;;;;;;;;;;4884993;29;20821;-82
2023/03/09 09:58:36;;;;;;;27.30;15.40;;;;;;;;;;4923985;29;20530;-81
2023/03/09 10:01:05;;;;;;;28.53;15.37;;;;;;;;;;4930024;29;20439;-84
2023/03/09 10:03:35;;;;;;;32.00;16.97;;;;;;;;;;4925156;29;20451;-81
2023/03/09 10:06:04;;;;;;;30.50;16.57;;;;;;;;;;4928602;29;20650;-82
2023/03/09 10:08:36;;;;;;;28.83;16.80;;;;;;;;;;4925103;29;20447;-79
2023/03/09 10:11:08;;;;;;;28.77;17.03;;;;;;;;;;4918706;29;20434;-79
2023/03/09 10:13:37;;;;;;;28.83;17.20;;;;;;;;;;4927989;29;20481;-81
2023/03/09 10:16:06;;;;;;;27.50;16.87;;;;;;;;;;4914652;29;20519;-79
2023/03/09 10:18:34;;;;;;;31.10;16.97;;;;;;;;;;4927610;29;20433;-81
2023/03/09 10:21:01;;;;;;;31.20;17.37;;;;;;;;;;4930465;29;20447;-82
2023/03/09 10:23:32;;;;;;;30.73;19.13;;;;;;;;;;4922802;29;20514;-81
2023/03/09 10:26:02;;;;;;;30.23;18.27;;;;;;;;;;4912141;29;20439;-83
2023/03/09 10:28:33;;;;;;;33.17;19.60;;;;;;;;;;4923739;29;20439;-83
2023/03/09 10:31:05;;;;;;;32.67;17.40;;;;;;;;;;4925443;29;20424;-79
2023/03/09 10:33:36;;;;;;;28.67;16.93;;;;;;;;;;4918660;29;20857;-81
2023/03/09 10:36:03;;;;;;;28.70;15.70;;;;;;;;;;4922940;29;20494;-82
2023/03/09 10:38:29;;;;;;;25.47;15.60;;;;;;;;;;4921537;29;20436;-81
2023/03/09 10:40:56;;;;;;;30.20;17.57;;;;;;;;;;4920955;29;20492;-81
2023/03/09 10:43:27;;;;;;;34.23;19.90;;;;;;;;;;4928249;29;20612;-83
2023/03/09 10:45:53;;;;;;;35.30;19.10;;;;;;;;;;4930862;29;20439;-82
2023/03/09 10:48:28;;;;;;;37.60;20.77;;;;;;;;;;4912688;29;20470;-79
2023/03/09 10:50:55;;;;;;;40.50;18.47;;;;;;;;;;4912639;29;21002;-81
2023/03/09 10:53:38;;;;;;;41.77;22.53;;;;;;;;;;4927854;29;20509;-79
2023/03/09 10:56:06;;;;;;;40.80;22.93;;;;;;;;;;4924880;29;20434;-81
2023/03/09 10:58:32;;;;;;;37.60;19.90;;;;;;;;;;4923807;28;20528;-83
2023/03/09 11:01:02;;;;;;;52.17;28.10;;;;;;;;;;4906832;29;20441;-81
2023/03/09 11:03:39;;;;;;;40.57;21.17;;;;;;;;;;4925777;29;20418;-83
2023/03/09 11:06:11;;;;;;;41.80;22.83;;;;;;;;;;4931440;28;20426;-83
2023/03/09 11:08:37;;;;;;;48.00;27.40;;;;;;;;;;4929238;29;20464;-81
2023/03/09 11:11:05;;;;;;;44.77;26.00;;;;;;;;;;4934760;28;20411;-79
2023/03/09 11:13:31;;;;;;;48.77;24.83;;;;;;;;;;4935909;28;20474;-82
2023/03/09 11:16:07;;;;;;;43.07;23.03;;;;;;;;;;4929224;29;20533;-80
2023/03/09 11:18:33;;;;;;;42.10;23.13;;;;;;;;;;4925465;29;20565;-81
2023/03/09 11:20:59;;;;;;;36.53;22.40;;;;;;;;;;4926177;29;20474;-81
2023/03/09 11:23:37;;;;;;;40.47;21.80;;;;;;;;;;4926333;29;21163;-80
2023/03/09 11:26:11;;;;;;;43.87;23.93;;;;;;;;;;4924547;29;21310;-75
2023/03/09 11:28:56;;;;;;;39.47;23.80;;;;;;;;;;4922927;29;20501;-81
2023/03/09 11:31:26;;;;;;;39.00;21.70;;;;;;;;;;4922316;29;20461;-79
2023/03/09 11:33:57;;;;;;;38.27;22.53;;;;;;;;;;4919584;29;20842;-78
2023/03/09 11:36:26;;;;;;;34.13;18.20;;;;;;;;;;4924216;29;20487;-80
2023/03/09 11:38:54;;;;;;;41.80;24.20;;;;;;;;;;4914145;29;20525;-80
2023/03/09 11:41:27;;;;;;;38.70;20.70;;;;;;;;;;4900850;29;20538;-78
2023/03/09 11:43:55;;;;;;;38.63;20.63;;;;;;;;;;4920673;29;20469;-79
2023/03/09 11:46:21;;;;;;;34.87;19.60;;;;;;;;;;4905434;29;20450;-77
2023/03/09 11:48:50;;;;;;;31.33;19.90;;;;;;;;;;4922436;29;20813;-79
2023/03/09 11:51:19;;;;;;;33.27;19.47;;;;;;;;;;4926662;29;20823;-79
2023/03/09 11:54:08;;;;;;;34.40;19.97;;;;;;;;;;4927436;29;21109;-78
2023/03/09 11:56:37;;;;;;;32.17;19.43;;;;;;;;;;4885477;29;20957;-79
2023/03/09 11:59:23;;;;;;;35.97;21.63;;;;;;;;;;4924048;29;21362;-79
2023/03/09 12:02:01;;;;;;;36.97;19.80;;;;;;;;;;4922965;29;20454;-78
2023/03/09 12:04:27;;;;;;;32.37;19.10;;;;;;;;;;4927002;29;20486;-80
2023/03/09 12:06:57;;;;;;;32.77;19.93;;;;;;;;;;4905765;29;20454;-80
2023/03/09 12:09:32;;;;;;;37.30;20.03;;;;;;;;;;4929871;29;20955;-80
2023/03/09 12:12:04;;;;;;;36.07;20.03;;;;;;;;;;4924305;29;20446;-79
2023/03/09 12:14:35;;;;;;;39.13;22.80;;;;;;;;;;4915421;29;20476;-80
2023/03/09 12:17:03;;;;;;;40.87;23.03;;;;;;;;;;4906896;29;20509;-80
2023/03/09 12:19:31;;;;;;;42.13;24.43;;;;;;;;;;4931443;29;20418;-79
2023/03/09 12:22:02;;;;;;;33.37;20.30;;;;;;;;;;4912398;29;20714;-79
2023/03/09 12:24:28;;;;;;;40.20;21.07;;;;;;;;;;4944262;29;20442;-78
2023/03/09 12:27:00;;;;;;;48.30;23.93;;;;;;;;;;4913362;29;20433;-80
2023/03/09 12:29:30;;;;;;;38.80;22.67;;;;;;;;;;4927030;29;20466;-82
2023/03/09 12:32:15;;;;;;;40.50;23.47;;;;;;;;;;4904947;29;20865;-78
2023/03/09 12:34:42;;;;;;;40.05;22.25;;;;;;;;;;4920491;29;20463;-81
2023/03/09 12:37:26;;;;;;;40.63;24.40;;;;;;;;;;4930942;29;20195;-80
2023/03/09 12:40:00;;;;;;;39.40;24.13;;;;;;;;;;4924615;29;20419;-78
2023/03/09 12:42:28;;;;;;;37.40;23.20;;;;;;;;;;4918701;29;20458;-77
2023/03/09 12:44:58;;;;;;;33.43;19.57;;;;;;;;;;4909414;29;20474;-77
2023/03/09 12:47:26;;;;;;;29.00;17.20;;;;;;;;;;4901417;29;20459;-79
2023/03/09 12:49:56;;;;;;;34.85;22.58;;;;;;;;;;4921684;29;20597;-77
2023/03/09 12:52:34;;;;;;;32.73;19.90;;;;;;;;;;4921891;29;20225;-79
2023/03/09 12:55:02;;;;;;;38.30;21.50;;;;;;;;;;4908157;29;20968;-76
2023/03/09 12:57:29;;;;;;;34.23;19.37;;;;;;;;;;4901170;29;20982;-78
2023/03/09 12:59:55;;;;;;;34.50;21.37;;;;;;;;;;4919931;29;20431;-78
2023/03/09 13:02:34;;;;;;;36.60;22.40;;;;;;;;;;4913389;29;20477;-80
2023/03/09 13:05:19;;;;;;;39.03;22.43;;;;;;;;;;4919229;29;21134;-79
2023/03/09 13:07:51;;;;;;;42.20;21.73;;;;;;;;;;4914819;29;20427;-79
2023/03/09 13:10:26;;;;;;;38.50;22.43;;;;;;;;;;4918684;29;20514;-79
2023/03/09 13:12:56;;;;;;;39.77;21.20;;;;;;;;;;4915491;29;20498;-79
2023/03/09 13:15:24;;;;;;;43.50;23.90;;;;;;;;;;4917823;29;20465;-78
2023/03/09 13:18:05;;;;;;;35.37;21.37;;;;;;;;;;4922767;29;20502;-79
2023/03/09 13:20:40;;;;;;;44.90;23.30;;;;;;;;;;4917350;29;20946;-79
2023/03/09 13:23:10;;;;;;;44.37;23.90;;;;;;;;;;4926243;29;20437;-78
2023/03/09 13:25:40;;;;;;;37.93;22.40;;;;;;;;;;4920593;29;20546;-79
2023/03/09 13:28:21;;;;;;;40.50;24.20;;;;;;;;;;4928519;29;20823;-78
2023/03/09 13:30:47;;;;;;;46.40;23.43;;;;;;;;;;4921632;29;20864;-78
2023/03/09 13:33:18;;;;;;;44.63;21.20;;;;;;;;;;4928194;29;20449;-81
2023/03/09 13:35:53;;;;;;;41.07;21.80;;;;;;;;;;4923131;29;20989;-79
2023/03/09 13:38:23;;;;;;;44.67;25.13;;;;;;;;;;4910751;29;20447;-81
2023/03/09 13:40:52;;;;;;;46.77;21.50;;;;;;;;;;4919808;29;20458;-80
2023/03/09 13:43:38;;;;;;;40.63;21.33;;;;;;;;;;4922797;29;20474;-82
2023/03/09 13:46:06;;;;;;;44.47;24.23;;;;;;;;;;4922801;29;20454;-79
2023/03/09 13:48:34;;;;;;;40.53;23.07;;;;;;;;;;4924674;29;20453;-79
2023/03/09 13:51:00;;;;;;;40.23;22.50;;;;;;;;;;4922850;29;20515;-78
2023/03/09 13:53:27;;;;;;;36.83;21.77;;;;;;;;;;4936417;29;20992;-79
2023/03/09 13:55:54;;;;;;;41.10;20.03;;;;;;;;;;4929660;29;20454;-80
2023/03/09 13:58:24;;;;;;;43.87;23.17;;;;;;;;;;4924433;29;20435;-80
2023/03/09 14:01:04;;;;;;;58.23;26.83;;;;;;;;;;4917250;29;20454;-80
2023/03/09 14:03:34;;;;;;;48.37;23.90;;;;;;;;;;4931251;29;20439;-83
2023/03/09 14:06:00;;;;;;;39.83;22.50;;;;;;;;;;4926915;29;20438;-81
2023/03/09 14:08:26;;;;;;;45.47;23.70;;;;;;;;;;4929554;29;20446;-81
2023/03/09 14:10:53;;;;;;;38.67;22.60;;;;;;;;;;4911371;29;20857;-80
2023/03/09 14:13:20;;;;;;;39.87;22.67;;;;;;;;;;4911072;29;20467;-80
2023/03/09 14:15:59;;;;;;;39.33;21.33;;;;;;;;;;4928088;29;20447;-80
2023/03/09 14:18:28;;;;;;;44.43;24.47;;;;;;;;;;4921539;29;20505;-80
2023/03/09 14:20:54;;;;;;;45.63;22.47;;;;;;;;;;4918964;29;20474;-80